Aérodrome :
LOGIN :

S'inscrire | Disclaimer

   EN    FR    IT 

 










Légende :    VFR   VFR Marginal   IFR   IFR Intensif   IFR Très Intensif
Visi : 
Plafond : 
>= 8 km
>= 3000ft
5 à 8 km
1000 à 3000 ft
1500m à 5 km
500 à 1000 ft
800 à 1500m
200 à 500 ft
< 800m
< 200 ft
Symboles :   Orages  Brouillard  Fortes neiges  Fortes précipitations  Vent > 20 kt
SIGMETs :   Divers  Orages  Givrage  Turbulence  Onde Orograph.  Cendres Volcan.






- Altitude de l'aérodrome : 56 ft
- Code IATA : BZR


LFMU - Beziers / Vias

DERNIER METAR :
  • 100430Z AUTO 31016KT 9999 // NSC 08/M01 Q1026

METARs EXPIRÉS :
  • 100400Z AUTO 32021G34KT 9999 // NSC 09/M01 Q1025
  • 100330Z AUTO 32024G35KT 9999 // NSC 09/M01 Q1024
  • 100300Z AUTO 31025G35KT 9999 // NSC 09/M00 Q1024
  • 100230Z AUTO 30019G31KT 9999 // NSC 08/00 Q1024
  • 100200Z AUTO 32011KT 9999 // NSC 08/01 Q1025

TAF AMD TAF LFMU
Valide du 10 à 04h jusqu'au 11 à 03h UTC


100416Z 1004/1103 32010G20KT CAVOK
TEMPO 1004/1007 33015G30KT
BECMG 1020/1022 02008KT
ATIS : +33 4 67 90 88 88



MET'MAP, la Météo Aéronautique d'un coup d'oeil ! - Copyright ORBIFLY Décembre 2007 - Disclaimer

ORBIFLY MET'MAP TEAM :

Programmation & Développement : Alexandra Zaïnal
Sur une idée originale de : Baudouin d'Aumeries
Assistance à la programmation : Marc-Olivier Méhu
Soutien technique & logistique : Manuel Goepfert

Contact : metmap@orbifly.com




SOURCES & CREDITS :

   NOAA